Terminal Aerodrome Forecast
Issued by NWS

Home | Current Version | Previous Version | Text Only | Print | Product List | Glossary On
Versions: 1 2 3 4 5 6 7 8 9 10 11 12 13 14 15 16 17
000
FTUS43 KDDC 192326
TAFHYS
TAF
KHYS 192326Z 2000/2024 14014KT P6SM SKC
     FM200300 13009KT P6SM VCTS SCT200CB
     FM200700 14009KT P6SM SCT200 WS020/20035KT
     FM200900 17008KT P6SM SCT200
     FM201600 19012G20KT P6SM FEW200=

USA.gov is the U.S. government's official web portal to all federal, state and local government web resources and services.